This is the latest recevied weather packets stored in our database for station/object KG7MRB. If no packets are shown the sender has not sent any weather packets the latest 10 day(s).
| Time | Temp. | Humidity | Pressure | Rain* | Wind** | Luminosity | Snow |
|---|---|---|---|---|---|---|---|
| 1777994957 | 13.33° C | 85% | 1033.4 hPa | 0 mm | - | 248 W/m² | - |
| 1777994654 | 12.78° C | 85% | 1033.3 hPa | 0 mm | - | 232 W/m² | - |
| 1777994348 | 12.22° C | 85% | 1033.3 hPa | 0 mm | - | 222 W/m² | - |
| 1777994045 | 12.22° C | 87% | 1033.5 hPa | 0 mm | - | 205 W/m² | - |
| 1777993741 | 11.11° C | 91% | 1033.2 hPa | 0 mm | - | 164 W/m² | - |
| 1777993438 | 10° C | 94% | 1033.2 hPa | 0 mm | - | 95 W/m² | - |
| 1777993133 | 9.44° C | 96% | 1033.1 hPa | 0 mm | - | 46 W/m² | - |
| 1777992831 | 9.44° C | 96% | 1033 hPa | 0 mm | - | 44 W/m² | - |
| 1777992528 | 8.89° C | 96% | 1033 hPa | 0 mm | - | 43 W/m² | - |
| 1777992227 | 8.89° C | 96% | 1033.1 hPa | 0 mm | - | 42 W/m² | - |
| 1777991924 | 8.89° C | 96% | 1033 hPa | 0 mm | - | 40 W/m² | - |
| 1777991622 | 8.89° C | 96% | 1032.9 hPa | 0 mm | - | 39 W/m² | - |
| 1777991318 | 8.89° C | 95% | 1032.9 hPa | 0 mm | - | 37 W/m² | - |
| 1777991016 | 8.89° C | 95% | 1032.8 hPa | 0 mm | - | 36 W/m² | - |
| 1777990713 | 9.44° C | 94% | 1032.8 hPa | 0 mm | - | 35 W/m² | - |
| 1777990410 | 9.44° C | 94% | 1032.7 hPa | 0 mm | - | 34 W/m² | - |
| 1777989803 | 9.44° C | 94% | 1032.6 hPa | 0 mm | - | 31 W/m² | - |
| 1777989500 | 8.89° C | 95% | 1032.6 hPa | 0 mm | - | 30 W/m² | - |
| 1777989196 | 8.89° C | 95% | 1032.6 hPa | 0 mm | - | 28 W/m² | - |
| 1777988893 | 9.44° C | 94% | 1032.5 hPa | 0 mm | - | 27 W/m² | - |
| 1777988590 | 9.44° C | 93% | 1032.4 hPa | 0 mm | - | 26 W/m² | - |
| 1777988286 | 9.44° C | 94% | 1032.7 hPa | 0 mm | - | 24 W/m² | - |
| 1777987983 | 9.44° C | 94% | 1032.4 hPa | 0 mm | - | 22 W/m² | - |
| 1777987679 | 9.44° C | 94% | 1032.3 hPa | 0 mm | - | 20 W/m² | - |
| 1777987376 | 8.89° C | 95% | 1032.4 hPa | 0 mm | - | 19 W/m² | - |
* Rain latest hour (hover to see other rain measurements)
** Current wind speed in m/s (hover to see current wind gust speed)